Terminal Aerodrome Forecast
Issued by NWS Houston/Galveston, TX

Current Version | Previous Version | Text Only | Print | Product List | Glossary Off
Versions: 1 2 3 4 5 6 7 8 9 10 11 12 13 14

000
FTUS44 KHGX 160527
TAFCLL
TAF
KCLL 160527Z 1606/1706 VRB03KT P6SM OVC250
     FM161500 15008KT P6SM BKN060 OVC100
     FM161800 16008KT P6SM -RA OVC050
     FM162200 09008KT P6SM SHRA BKN025 OVC050
     FM170100 04008KT 4SM +SHRA BR SCT007 OVC015
     FM170500 09005KT P6SM SCT010 OVC020=

USA.gov is the U.S. government's official web portal to all federal, state and local government web resources and services.